Time;durP1;ratioP1;P1;durP2;ratioP2;P2;SDS_P1;SDS_P2;PMS_P1;PMS_P2;Temp;Humidity;BMP_temperature;BMP_pressure;BME280_temperature;BME280_humidity;BME280_pressure;Samples;Min_cycle;Max_cycle;Signal;HPM_P1;HPM_P2
2023/04/13 00:01:51;;;;;;;3.55;0.90;;;;;;;8.49;100.00;99330.97;5236691;28;20052;-69
2023/04/13 00:04:23;;;;;;;2.42;0.88;;;;;;;8.45;100.00;99324.41;5240884;28;20395;-69
2023/04/13 00:06:54;;;;;;;2.80;0.77;;;;;;;8.48;100.00;99322.28;5241385;28;20033;-69
2023/04/13 00:09:26;;;;;;;2.60;1.00;;;;;;;8.49;100.00;99321.34;5240042;28;20034;-69
2023/04/13 00:11:57;;;;;;;4.38;1.15;;;;;;;8.45;100.00;99330.44;5242185;28;20040;-69
2023/04/13 00:14:34;;;;;;;3.05;0.95;;;;;;;8.49;100.00;99318.72;5244871;28;20056;-68
2023/04/13 00:17:05;;;;;;;3.55;1.15;;;;;;;8.45;100.00;99324.41;5245286;28;20037;-69
2023/04/13 00:19:36;;;;;;;4.13;1.10;;;;;;;8.45;100.00;99324.41;5244784;28;20418;-68
2023/04/13 00:22:08;;;;;;;4.82;0.95;;;;;;;8.40;100.00;99318.81;5243154;28;20390;-68
2023/04/13 00:24:42;;;;;;;4.88;1.30;;;;;;;8.50;100.00;99317.75;5242413;28;20025;-68
2023/04/13 00:27:14;;;;;;;6.03;1.38;;;;;;;8.57;100.00;99331.00;5240719;28;20029;-69
2023/04/13 00:29:45;;;;;;;4.47;1.10;;;;;;;8.60;100.00;99322.03;5242530;28;20375;-68
2023/04/13 00:32:16;;;;;;;3.42;1.00;;;;;;;8.67;100.00;99310.00;5246115;28;20091;-69
2023/04/13 00:34:48;;;;;;;4.45;1.10;;;;;;;8.60;100.00;99319.41;5244147;28;20025;-68
2023/04/13 00:37:20;;;;;;;8.02;1.20;;;;;;;8.58;100.00;99331.81;5242532;28;20076;-68
2023/04/13 00:39:51;;;;;;;4.00;0.90;;;;;;;8.60;100.00;99324.63;5246034;28;20303;-68
2023/04/13 00:42:22;;;;;;;7.20;1.58;;;;;;;8.62;100.00;99327.94;5242106;28;20021;-70
2023/04/13 00:44:54;;;;;;;3.42;1.05;;;;;;;8.62;100.00;99322.69;5241069;28;20398;-69
2023/04/13 00:47:29;;;;;;;3.92;1.10;;;;;;;8.70;100.00;99331.38;5244644;28;20032;-69
2023/04/13 00:50:02;;;;;;;3.88;0.98;;;;;;;8.61;100.00;99332.34;5256698;28;20120;-69
2023/04/13 00:52:38;;;;;;;4.05;0.90;;;;;;;8.65;100.00;99328.44;5241141;28;20027;-69
2023/04/13 00:55:10;;;;;;;3.72;1.40;;;;;;;8.61;100.00;99327.09;5242744;28;20025;-69
2023/04/13 00:57:41;;;;;;;3.88;1.83;;;;;;;8.66;100.00;99326.63;5241719;28;20280;-68
2023/04/13 01:00:13;;;;;;;1.83;0.65;;;;;;;8.57;100.00;99310.13;5241737;28;20052;-69
2023/04/13 01:02:44;;;;;;;5.10;1.35;;;;;;;8.61;100.00;99321.88;5245977;28;20464;-69
2023/04/13 01:05:17;;;;;;;9.15;1.25;;;;;;;8.64;100.00;99323.38;5246675;28;20037;-69
2023/04/13 01:08:02;;;;;;;5.45;0.98;;;;;;;8.86;100.00;99330.66;5245090;28;20037;-69
2023/04/13 01:10:41;;;;;;;2.47;0.90;;;;;;;8.86;100.00;99322.00;5244694;28;20382;-69
2023/04/13 01:13:21;;;;;;;4.18;1.10;;;;;;;8.93;100.00;99323.00;5242568;28;20458;-69
2023/04/13 01:16:02;;;;;;;4.68;0.93;;;;;;;8.77;100.00;99315.94;5243293;28;20295;-69
2023/04/13 01:18:38;;;;;;;3.13;1.00;;;;;;;8.87;100.00;99316.63;5245000;28;20479;-69
2023/04/13 01:21:13;;;;;;;4.25;1.60;;;;;;;8.80;100.00;99320.84;5245222;28;20170;-69
2023/04/13 01:24:16;;;;;;;5.93;1.30;;;;;;;8.95;100.00;99311.44;5245064;28;20029;-69
2023/04/13 01:26:53;;;;;;;5.63;1.58;;;;;;;8.89;100.00;99330.34;5243893;28;20068;-69
2023/04/13 01:29:26;;;;;;;2.95;1.00;;;;;;;8.86;100.00;99332.44;5242776;28;20032;-69
2023/04/13 01:31:58;;;;;;;2.67;1.08;;;;;;;8.82;100.00;99326.72;5242777;28;20434;-69
2023/04/13 01:34:29;;;;;;;6.05;1.40;;;;;;;8.82;100.00;99331.94;5240774;28;20155;-69
2023/04/13 01:37:04;;;;;;;4.00;1.17;;;;;;;8.85;100.00;99342.06;5244546;28;20040;-69
2023/04/13 01:39:36;;;;;;;3.70;1.00;;;;;;;8.80;100.00;99351.38;5244507;28;20120;-69
2023/04/13 01:42:08;;;;;;;5.03;1.40;;;;;;;8.86;100.00;99340.28;5237773;28;20052;-69
2023/04/13 01:44:39;;;;;;;3.97;1.05;;;;;;;8.80;100.00;99357.41;5244404;28;20112;-69
2023/04/13 01:47:14;;;;;;;5.63;1.20;;;;;;;8.83;100.00;99351.88;5243737;28;20134;-69
2023/04/13 01:50:13;;;;;;;4.90;1.40;;;;;;;8.88;100.00;99348.78;5242100;28;20397;-69
2023/04/13 01:52:45;;;;;;;5.53;0.93;;;;;;;8.80;100.00;99364.41;5242778;28;20414;-69
2023/04/13 01:55:16;;;;;;;6.80;1.63;;;;;;;8.80;100.00;99361.81;5244317;28;20021;-69
2023/04/13 01:57:51;;;;;;;3.58;1.05;;;;;;;8.79;100.00;99371.44;5245697;28;20036;-69
2023/04/13 02:00:22;;;;;;;7.03;1.65;;;;;;;8.63;100.00;99372.13;5241427;28;20579;-69
2023/04/13 02:02:53;;;;;;;6.32;1.30;;;;;;;8.74;100.00;99389.34;5242674;28;20036;-69
2023/04/13 02:05:26;;;;;;;5.80;1.20;;;;;;;8.68;100.00;99385.56;5240215;28;20041;-69
2023/04/13 02:07:57;;;;;;;5.13;1.55;;;;;;;8.74;100.00;99384.13;5242837;28;20111;-68
2023/04/13 02:10:28;;;;;;;6.57;1.30;;;;;;;8.67;100.00;99404.78;5236392;28;20701;-69
2023/04/13 02:13:00;;;;;;;6.40;1.65;;;;;;;8.68;100.00;99396.00;5244262;28;20345;-69
2023/04/13 02:15:37;;;;;;;6.18;1.40;;;;;;;8.78;100.00;99396.72;5241546;28;20079;-69
2023/04/13 02:18:10;;;;;;;5.72;1.48;;;;;;;8.70;100.00;99403.69;5240751;28;20044;-69
2023/04/13 02:20:44;;;;;;;6.23;2.33;;;;;;;8.72;100.00;99402.56;5242289;28;20086;-68
2023/04/13 02:23:16;;;;;;;3.47;1.10;;;;;;;8.67;100.00;99404.78;5241744;28;20297;-68
2023/04/13 02:25:49;;;;;;;3.90;1.45;;;;;;;8.78;100.00;99427.22;5244013;28;20037;-69
2023/04/13 02:28:20;;;;;;;3.60;1.67;;;;;;;8.80;100.00;99422.69;5242581;28;20108;-69
2023/04/13 02:30:53;;;;;;;4.70;1.63;;;;;;;8.76;100.00;99423.97;5241033;28;20520;-69
2023/04/13 02:33:29;;;;;;;5.40;1.10;;;;;;;8.80;100.00;99421.88;5242963;28;20100;-69
2023/04/13 02:36:02;;;;;;;5.28;1.65;;;;;;;8.75;100.00;99427.53;5244583;28;20195;-69
2023/04/13 02:38:36;;;;;;;5.53;2.17;;;;;;;8.80;100.00;99434.94;5239033;28;20492;-69
2023/04/13 02:41:08;;;;;;;7.22;1.73;;;;;;;8.83;100.00;99440.66;5239998;28;20053;-69
2023/04/13 02:43:39;;;;;;;4.07;1.30;;;;;;;8.82;100.00;99439.00;5241518;28;20071;-69
2023/04/13 02:46:10;;;;;;;5.45;1.33;;;;;;;8.93;100.00;99440.53;5238505;28;20029;-69
2023/04/13 02:48:42;;;;;;;6.22;1.85;;;;;;;8.95;100.00;99454.28;5238689;28;20189;-69
2023/04/13 02:51:13;;;;;;;5.63;1.50;;;;;;;8.87;100.00;99455.06;5239004;28;20109;-69
2023/04/13 02:53:45;;;;;;;6.22;2.00;;;;;;;8.84;100.00;99457.97;5241698;28;20028;-69
2023/04/13 02:56:16;;;;;;;6.22;1.42;;;;;;;8.84;100.00;99463.19;5241526;28;20029;-69
2023/04/13 02:58:47;;;;;;;3.67;1.13;;;;;;;8.93;100.00;99461.44;5242331;28;20040;-69
2023/04/13 03:01:19;;;;;;;4.32;2.05;;;;;;;8.87;100.00;99478.56;5242770;28;20036;-69
2023/04/13 03:03:50;;;;;;;5.07;1.55;;;;;;;8.88;100.00;99495.84;5245617;28;20058;-70
2023/04/13 03:06:24;;;;;;;4.45;1.25;;;;;;;8.80;100.00;99493.19;5245045;28;20041;-70
2023/04/13 03:08:56;;;;;;;4.00;1.27;;;;;;;8.68;100.00;99489.19;5239035;28;20576;-68
2023/04/13 03:11:27;;;;;;;2.70;0.95;;;;;;;8.70;100.00;99502.91;5241017;28;20689;-69
2023/04/13 03:14:00;;;;;;;2.15;0.70;;;;;;;8.64;100.00;99504.34;5246348;28;20119;-69
2023/04/13 03:16:31;;;;;;;4.45;1.50;;;;;;;8.60;100.00;99509.97;5242840;28;20036;-69
2023/04/13 03:19:03;;;;;;;6.10;1.10;;;;;;;8.50;100.00;99507.47;5246002;28;20132;-69
2023/04/13 03:21:36;;;;;;;3.47;0.80;;;;;;;8.49;100.00;99511.88;5244585;28;20029;-69
2023/04/13 03:24:07;;;;;;;4.18;1.35;;;;;;;8.53;100.00;99509.78;5244214;28;20031;-69
2023/04/13 03:26:38;;;;;;;3.33;1.45;;;;;;;8.48;100.00;99519.81;5239137;28;20407;-69
2023/04/13 03:29:10;;;;;;;4.63;1.30;;;;;;;8.42;100.00;99510.81;5246689;28;20065;-69
2023/04/13 03:31:41;;;;;;;4.50;1.80;;;;;;;8.49;100.00;99527.53;5245581;28;20029;-69
2023/04/13 03:34:12;;;;;;;3.80;1.60;;;;;;;8.56;100.00;99532.97;5244582;28;20044;-69
2023/04/13 03:36:44;;;;;;;5.38;1.70;;;;;;;8.60;100.00;99534.31;5247442;28;20025;-69
2023/04/13 03:39:15;;;;;;;7.68;2.50;;;;;;;8.56;100.00;99534.75;5246805;28;20226;-69
2023/04/13 03:41:47;;;;;;;7.28;2.45;;;;;;;8.57;100.00;99539.84;5242516;28;20112;-69
2023/04/13 03:44:18;;;;;;;6.47;2.25;;;;;;;8.58;100.00;99546.69;5245007;28;20086;-69
2023/04/13 03:46:49;;;;;;;7.65;3.22;;;;;;;8.61;100.00;99546.41;5246958;28;20577;-69
2023/04/13 03:49:21;;;;;;;4.63;2.50;;;;;;;8.60;100.00;99549.13;5247275;28;20029;-69
2023/04/13 03:51:52;;;;;;;5.47;2.70;;;;;;;8.60;100.00;99556.97;5244135;28;20128;-69
2023/04/13 03:54:24;;;;;;;6.32;2.95;;;;;;;8.53;100.00;99557.59;5247753;28;20877;-69
2023/04/13 03:56:57;;;;;;;5.53;3.15;;;;;;;8.49;100.00;99553.63;5247285;28;20024;-69
2023/04/13 03:59:29;;;;;;;5.28;2.80;;;;;;;8.52;100.00;99569.00;5246097;28;20029;-69
2023/04/13 04:02:01;;;;;;;6.53;3.25;;;;;;;8.49;100.00;99571.91;5244586;28;20021;-69
2023/04/13 04:04:32;;;;;;;7.20;2.88;;;;;;;8.51;100.00;99572.56;5244107;28;20050;-69
2023/04/13 04:07:04;;;;;;;7.68;2.97;;;;;;;8.50;100.00;99573.53;5244887;28;20042;-70
2023/04/13 04:09:35;;;;;;;5.57;3.25;;;;;;;8.48;100.00;99578.06;5245267;28;20037;-70
2023/04/13 04:12:07;;;;;;;5.60;2.90;;;;;;;8.42;100.00;99578.69;5241707;28;20029;-69
2023/04/13 04:14:38;;;;;;;6.03;2.85;;;;;;;8.50;100.00;99585.78;5244747;28;20512;-70
2023/04/13 04:17:09;;;;;;;7.18;2.85;;;;;;;8.41;100.00;99597.06;5242713;28;20041;-69
2023/04/13 04:19:41;;;;;;;7.93;2.85;;;;;;;8.44;100.00;99612.44;5244381;28;20640;-69
2023/04/13 04:22:12;;;;;;;8.38;3.00;;;;;;;8.39;100.00;99612.06;5241603;28;20553;-69
2023/04/13 04:24:44;;;;;;;5.00;2.65;;;;;;;8.27;100.00;99620.06;5243821;28;20025;-69
2023/04/13 04:27:15;;;;;;;5.95;2.83;;;;;;;8.34;100.00;99619.50;5245440;28;20672;-69
2023/04/13 04:29:48;;;;;;;6.93;2.38;;;;;;;8.32;100.00;99617.00;5247552;28;20146;-69
2023/04/13 04:32:22;;;;;;;4.88;3.25;;;;;;;8.24;100.00;99599.47;5242859;28;20087;-69
2023/04/13 04:34:54;;;;;;;5.88;2.85;;;;;;;8.29;100.00;99623.34;5241336;28;20025;-69
2023/04/13 04:37:25;;;;;;;6.07;2.92;;;;;;;8.28;100.00;99620.88;5239933;28;20043;-69
2023/04/13 04:39:56;;;;;;;7.60;3.45;;;;;;;8.27;100.00;99634.91;5241885;28;20021;-69
2023/04/13 04:42:27;;;;;;;5.50;2.95;;;;;;;8.20;100.00;99628.63;5243074;28;20513;-70
2023/04/13 04:44:59;;;;;;;9.60;3.80;;;;;;;8.24;100.00;99635.19;5244666;28;20884;-69
2023/04/13 04:47:31;;;;;;;6.43;3.10;;;;;;;8.18;100.00;99652.25;5242749;28;20052;-69
2023/04/13 04:50:02;;;;;;;6.90;3.42;;;;;;;8.12;100.00;99649.41;5242960;28;20036;-70
2023/04/13 04:52:33;;;;;;;7.57;3.67;;;;;;;8.15;100.00;99651.72;5243630;28;20033;-69
2023/04/13 04:55:06;;;;;;;7.20;3.63;;;;;;;7.99;100.00;99639.25;5246216;28;20013;-69
2023/04/13 04:57:37;;;;;;;6.10;3.45;;;;;;;8.09;100.00;99660.94;5246227;28;20127;-69
2023/04/13 05:00:09;;;;;;;8.18;3.50;;;;;;;8.12;100.00;99659.81;5242297;28;20514;-69
2023/04/13 05:02:41;;;;;;;6.28;3.40;;;;;;;8.11;100.00;99659.00;5243351;28;20393;-69
2023/04/13 05:05:12;;;;;;;7.22;3.55;;;;;;;8.08;100.00;99658.47;5241249;28;20045;-70
2023/04/13 05:07:44;;;;;;;8.88;4.43;;;;;;;8.17;100.00;99668.03;5233683;28;20035;-69
2023/04/13 05:10:16;;;;;;;8.10;4.05;;;;;;;8.17;100.00;99661.03;5240224;28;20036;-70
2023/04/13 05:12:47;;;;;;;9.18;4.07;;;;;;;8.16;100.00;99663.78;5231485;28;20037;-69
2023/04/13 05:15:18;;;;;;;9.25;4.72;;;;;;;8.24;100.00;99664.72;5243187;28;20482;-70
2023/04/13 05:17:50;;;;;;;7.47;4.28;;;;;;;8.27;100.00;99659.22;5243664;28;20479;-69
2023/04/13 05:20:21;;;;;;;6.80;4.18;;;;;;;8.32;100.00;99656.16;5245137;28;20493;-70
2023/04/13 05:22:52;;;;;;;8.23;4.28;;;;;;;8.36;100.00;99665.34;5244925;28;20555;-70
2023/04/13 05:25:24;;;;;;;5.60;3.47;;;;;;;8.30;100.00;99665.94;5240980;28;20403;-69
2023/04/13 05:27:55;;;;;;;7.13;3.53;;;;;;;8.34;100.00;99672.50;5233566;28;20029;-69
2023/04/13 05:30:26;;;;;;;5.60;2.80;;;;;;;8.40;100.00;99674.56;5238134;28;20060;-69
2023/04/13 05:32:57;;;;;;;7.43;3.55;;;;;;;8.38;100.00;99678.28;5251223;28;20033;-69
2023/04/13 05:35:29;;;;;;;6.45;3.40;;;;;;;8.49;100.00;99681.53;5240599;28;20025;-68
2023/04/13 05:38:00;;;;;;;6.43;3.30;;;;;;;8.51;100.00;99687.41;5239099;28;20063;-69
2023/04/13 05:40:34;;;;;;;5.88;2.85;;;;;;;8.57;100.00;99693.03;5241599;28;20079;-69
2023/04/13 05:43:05;;;;;;;5.20;2.35;;;;;;;8.56;100.00;99693.97;5240144;28;20039;-70
2023/04/13 05:45:37;;;;;;;4.82;2.22;;;;;;;8.62;100.00;99702.06;5242461;28;20033;-69
2023/04/13 05:48:08;;;;;;;5.88;2.00;;;;;;;8.64;100.00;99713.19;5243519;28;20028;-68
2023/04/13 05:50:39;;;;;;;6.13;2.45;;;;;;;8.72;100.00;99700.22;5244135;28;20107;-68
2023/04/13 05:53:11;;;;;;;7.63;2.33;;;;;;;8.64;100.00;99707.97;5240713;28;20029;-71
2023/04/13 05:55:43;;;;;;;6.65;1.88;;;;;;;8.58;100.00;99708.53;5241279;28;20033;-69
2023/04/13 05:58:14;;;;;;;4.70;2.08;;;;;;;8.65;100.00;99722.66;5238818;28;20272;-70
2023/04/13 06:00:45;;;;;;;6.55;2.13;;;;;;;8.80;100.00;99724.78;5258200;28;20501;-69
2023/04/13 06:03:19;;;;;;;4.78;1.95;;;;;;;8.86;100.00;99732.03;5238238;28;20596;-69
2023/04/13 06:05:51;;;;;;;4.05;1.60;;;;;;;8.87;100.00;99746.75;5213961;28;20045;-70
2023/04/13 06:08:31;;;;;;;6.82;1.83;;;;;;;8.80;100.00;99735.25;5224917;28;20494;-70
2023/04/13 06:11:02;;;;;;;3.75;1.40;;;;;;;8.82;100.00;99747.16;5241927;28;20091;-70
2023/04/13 06:13:34;;;;;;;5.03;1.88;;;;;;;8.84;100.00;99763.53;5240563;28;20033;-69
2023/04/13 06:16:06;;;;;;;5.53;1.83;;;;;;;8.87;100.00;99765.84;5229892;28;20280;-70
2023/04/13 06:18:37;;;;;;;6.03;2.00;;;;;;;8.92;100.00;99763.63;5241673;28;20036;-70
2023/04/13 06:21:09;;;;;;;4.95;1.92;;;;;;;8.92;100.00;99763.63;5241738;28;20494;-69
2023/04/13 06:23:40;;;;;;;4.45;1.85;;;;;;;8.98;100.00;99764.84;5242264;28;20025;-69
2023/04/13 06:26:11;;;;;;;5.97;2.35;;;;;;;9.15;100.00;99763.22;5237194;28;20784;-70
2023/04/13 06:28:43;;;;;;;4.35;1.90;;;;;;;9.20;100.00;99766.19;5240411;28;20492;-70
2023/04/13 06:31:15;;;;;;;4.18;2.25;;;;;;;9.23;100.00;99771.94;5240066;28;20029;-69
2023/04/13 06:33:46;;;;;;;5.65;2.17;;;;;;;9.26;100.00;99774.28;5239700;28;20106;-70
2023/04/13 06:36:18;;;;;;;6.38;2.00;;;;;;;9.31;100.00;99773.81;5238857;28;20107;-69
2023/04/13 06:38:49;;;;;;;5.22;1.98;;;;;;;9.36;100.00;99781.25;5236505;28;20037;-70
2023/04/13 06:41:20;;;;;;;6.30;2.00;;;;;;;9.35;100.00;99785.63;5243675;28;20021;-70
2023/04/13 06:43:51;;;;;;;5.65;1.80;;;;;;;9.41;100.00;99794.69;5239424;28;20032;-70
2023/04/13 06:46:23;;;;;;;3.55;1.88;;;;;;;9.53;100.00;99788.25;5237169;28;20028;-68
2023/04/13 06:48:54;;;;;;;7.00;1.63;;;;;;;9.52;100.00;99802.31;5246692;28;20029;-69
2023/04/13 06:51:26;;;;;;;6.70;2.30;;;;;;;9.61;100.00;99806.63;5241578;28;20035;-69
2023/04/13 06:53:57;;;;;;;6.70;2.40;;;;;;;9.54;100.00;99805.56;5245254;28;20068;-68
2023/04/13 06:56:29;;;;;;;7.75;2.22;;;;;;;9.55;100.00;99811.66;5244442;28;20502;-69
2023/04/13 06:59:01;;;;;;;8.00;2.72;;;;;;;9.66;100.00;99817.50;5238229;28;20120;-69
2023/04/13 07:01:32;;;;;;;8.48;2.67;;;;;;;9.75;100.00;99815.75;5239327;28;20029;-68
2023/04/13 07:04:05;;;;;;;6.88;2.22;;;;;;;9.65;100.00;99825.47;5242664;28;20025;-68
2023/04/13 07:06:37;;;;;;;;;;;;;;;10.24;100.00;99821.38;5241035;28;20045;-68
2023/04/13 07:09:08;;;;;;;6.07;2.60;;;;;;;9.70;100.00;99826.69;5247768;28;20393;-68
2023/04/13 07:11:39;;;;;;;8.88;2.50;;;;;;;9.65;100.00;99834.13;5247003;28;20040;-68
2023/04/13 07:14:11;;;;;;;8.35;2.50;;;;;;;9.69;100.00;99840.69;5246334;28;20062;-68
2023/04/13 07:16:42;;;;;;;7.22;2.47;;;;;;;9.77;100.00;99853.03;5245002;28;20040;-68
2023/04/13 07:19:13;;;;;;;7.10;2.35;;;;;;;9.82;100.00;99856.03;5245595;28;20409;-68
2023/04/13 07:21:45;;;;;;;7.05;2.45;;;;;;;9.67;100.00;99855.72;5245716;28;20405;-68
2023/04/13 07:24:17;;;;;;;6.75;2.22;;;;;;;9.70;100.00;99865.09;5240614;28;20033;-68
2023/04/13 07:26:48;;;;;;;8.80;2.97;;;;;;;9.83;100.00;99872.56;5242858;28;20029;-68
2023/04/13 07:29:20;;;;;;;8.02;2.20;;;;;;;9.91;100.00;99870.00;5241383;28;20448;-69
2023/04/13 07:31:51;;;;;;;8.07;2.40;;;;;;;9.85;100.00;99881.06;5241327;28;20044;-68
2023/04/13 07:34:22;;;;;;;8.43;2.75;;;;;;;9.87;100.00;99884.38;5245702;28;20029;-69
2023/04/13 07:36:54;;;;;;;6.93;2.70;;;;;;;9.92;100.00;99872.47;5244387;28;20017;-69
2023/04/13 07:39:26;;;;;;;8.70;3.20;;;;;;;9.90;100.00;99882.28;5245074;28;20070;-68
2023/04/13 07:41:58;;;;;;;8.18;2.60;;;;;;;10.00;100.00;99895.28;5245534;28;20033;-68
2023/04/13 07:44:29;;;;;;;5.63;2.28;;;;;;;9.95;100.00;99892.28;5245896;28;20021;-69
2023/04/13 07:47:01;;;;;;;6.45;2.28;;;;;;;10.09;100.00;99897.00;5238403;28;20102;-68
2023/04/13 07:49:36;;;;;;;9.13;2.47;;;;;;;10.20;100.00;99906.44;5245660;28;20061;-68
2023/04/13 07:52:07;;;;;;;10.05;2.47;;;;;;;10.10;100.00;99913.53;5242501;28;20691;-68
2023/04/13 07:54:38;;;;;;;11.68;2.90;;;;;;;10.24;100.00;99911.19;5245169;28;20131;-68
2023/04/13 07:57:10;;;;;;;13.77;3.42;;;;;;;10.22;100.00;99915.75;5240789;28;20030;-68
2023/04/13 07:59:41;;;;;;;8.75;2.80;;;;;;;10.19;100.00;99915.22;5245281;28;20467;-68
2023/04/13 08:02:12;;;;;;;9.32;3.25;;;;;;;10.23;100.00;99922.66;5241831;28;20469;-68
2023/04/13 08:04:43;;;;;;;10.23;3.20;;;;;;;10.39;100.00;99927.22;5238657;28;20528;-69
2023/04/13 08:07:15;;;;;;;14.80;4.05;;;;;;;10.53;100.00;99925.88;5243624;28;20416;-69
2023/04/13 08:09:48;;;;;;;8.93;2.83;;;;;;;10.73;100.00;99921.25;5244170;28;20383;-68
2023/04/13 08:12:19;;;;;;;;;;;;;;;11.30;100.00;99923.38;5240032;28;20030;-69
2023/04/13 08:14:51;;;;;;;9.93;3.42;;;;;;;10.75;100.00;99934.19;5237494;28;20370;-69
2023/04/13 08:17:22;;;;;;;11.05;4.30;;;;;;;10.84;100.00;99946.38;5241291;28;20465;-69
2023/04/13 08:19:53;;;;;;;9.68;3.13;;;;;;;10.86;100.00;99941.81;5244692;28;20032;-68
2023/04/13 08:22:24;;;;;;;11.50;3.60;;;;;;;10.80;100.00;99951.13;5242804;28;20119;-68
2023/04/13 08:24:56;;;;;;;12.88;3.95;;;;;;;10.96;100.00;99959.06;5241863;28;20350;-69
2023/04/13 08:27:27;;;;;;;11.32;3.47;;;;;;;11.03;100.00;99958.47;5243814;28;20021;-69
2023/04/13 08:30:00;;;;;;;11.57;3.53;;;;;;;11.15;100.00;99960.66;5242446;28;20029;-69
2023/04/13 08:32:32;;;;;;;12.40;3.75;;;;;;;11.10;100.00;99973.41;5242446;28;20029;-68
2023/04/13 08:35:06;;;;;;;10.80;3.15;;;;;;;11.16;100.00;99974.59;5240586;28;20032;-69
2023/04/13 08:37:38;;;;;;;11.48;3.22;;;;;;;11.17;100.00;99978.84;5239898;28;20037;-69
2023/04/13 08:40:10;;;;;;;13.35;3.55;;;;;;;11.31;100.00;99974.84;5231872;28;20174;-69
2023/04/13 08:42:42;;;;;;;12.23;4.43;;;;;;;11.33;100.00;99984.19;5245699;28;20336;-69
2023/04/13 08:45:14;;;;;;;14.75;3.83;;;;;;;11.19;100.00;99969.03;5240502;28;20474;-69
2023/04/13 08:47:45;;;;;;;11.65;3.20;;;;;;;11.40;100.00;99993.09;5241223;28;20060;-69
2023/04/13 08:50:17;;;;;;;12.48;3.65;;;;;;;11.39;100.00;100007.16;5242217;28;20029;-69
2023/04/13 08:52:48;;;;;;;10.68;3.58;;;;;;;11.40;100.00;99994.88;5244005;28;20061;-69
2023/04/13 08:55:20;;;;;;;10.93;2.75;;;;;;;11.56;100.00;99999.41;5241118;28;20029;-69
2023/04/13 08:57:55;;;;;;;13.13;2.95;;;;;;;11.58;100.00;100007.91;5239986;28;20037;-68
2023/04/13 09:00:28;;;;;;;13.07;2.47;;;;;;;11.69;100.00;100026.00;5238370;28;20353;-68
2023/04/13 09:03:05;;;;;;;8.60;2.65;;;;;;;11.85;100.00;100022.66;5239923;28;20232;-69
2023/04/13 09:05:38;;;;;;;14.85;3.20;;;;;;;11.89;99.36;100035.31;5244683;28;20566;-69
2023/04/13 09:08:12;;;;;;;8.70;2.35;;;;;;;12.10;100.00;100032.25;5241861;28;20485;-69
2023/04/13 09:10:43;;;;;;;8.40;2.65;;;;;;;12.22;99.23;100035.41;5238936;28;20036;-69
2023/04/13 09:13:15;;;;;;;11.93;3.28;;;;;;;12.39;98.76;100029.22;5239197;28;20029;-69
2023/04/13 09:15:46;;;;;;;12.35;3.05;;;;;;;12.49;96.84;100038.75;5242606;28;20040;-69
2023/04/13 09:18:18;;;;;;;12.70;2.65;;;;;;;12.41;95.18;100042.16;5241560;28;20032;-69
2023/04/13 09:20:57;;;;;;;10.15;3.00;;;;;;;12.33;91.82;100021.16;5238488;28;20025;-68
2023/04/13 09:23:28;;;;;;;15.40;3.83;;;;;;;12.28;92.56;100054.97;5235486;28;20037;-69
2023/04/13 09:26:07;;;;;;;10.55;3.08;;;;;;;12.23;92.00;100059.84;5226684;28;20453;-68
2023/04/13 09:28:46;;;;;;;10.75;2.67;;;;;;;12.21;90.72;100067.91;5230512;28;20032;-69
2023/04/13 09:31:18;;;;;;;12.05;2.63;;;;;;;12.07;91.33;100064.06;5235263;28;20028;-69
2023/04/13 09:33:51;;;;;;;10.73;3.03;;;;;;;12.06;86.15;100077.38;5236720;28;20488;-69
2023/04/13 09:36:27;;;;;;;8.75;2.13;;;;;;;12.08;88.37;100080.66;5233919;28;20391;-68
2023/04/13 09:38:58;;;;;;;11.77;2.70;;;;;;;11.91;88.31;100093.72;5235596;28;20409;-68
2023/04/13 09:41:32;;;;;;;9.27;2.58;;;;;;;11.83;92.84;100095.44;5237850;28;20774;-69
2023/04/13 09:44:23;;;;;;;10.75;3.17;;;;;;;12.22;95.44;100089.72;5239859;28;20399;-69
2023/04/13 09:46:58;;;;;;;11.85;2.72;;;;;;;11.99;90.63;100105.22;5234542;28;20028;-69
2023/04/13 09:49:39;;;;;;;8.20;2.53;;;;;;;12.14;88.93;100109.72;5241090;28;20068;-69
2023/04/13 09:52:18;;;;;;;11.65;3.22;;;;;;;12.16;86.24;100112.22;5241054;28;20041;-69
2023/04/13 09:54:56;;;;;;;12.07;2.40;;;;;;;12.18;89.37;100118.94;5239242;28;20028;-69
2023/04/13 09:57:29;;;;;;;10.27;2.65;;;;;;;11.90;88.99;100126.19;5229846;28;20253;-69
2023/04/13 10:00:00;;;;;;;8.82;3.00;;;;;;;11.80;92.64;100135.94;5230458;28;20017;-69
2023/04/13 10:02:32;;;;;;;7.63;2.60;;;;;;;11.81;92.86;100134.13;5238061;28;20052;-69
2023/04/13 10:05:04;;;;;;;9.65;3.00;;;;;;;11.86;92.59;100148.50;5237504;28;20490;-69
2023/04/13 10:07:36;;;;;;;10.30;3.20;;;;;;;11.91;92.55;100148.03;5240829;28;20206;-69
2023/04/13 10:10:08;;;;;;;9.48;2.92;;;;;;;11.98;90.44;100149.03;5234439;28;20032;-69
2023/04/13 10:12:45;;;;;;;15.32;3.72;;;;;;;12.15;87.83;100147.31;5234103;28;20094;-69
2023/04/13 10:15:51;;;;;;;10.02;3.15;;;;;;;12.32;91.95;100154.28;5235433;28;20631;-69
2023/04/13 10:18:29;;;;;;;12.05;3.80;;;;;;;12.26;86.94;100161.97;5234914;28;20040;-69
2023/04/13 10:21:02;;;;;;;11.30;3.88;;;;;;;12.21;91.07;100161.63;5233470;28;20057;-69
2023/04/13 10:23:37;;;;;;;;;;;;;;;13.01;86.04;100157.56;5242714;28;20029;-69
2023/04/13 10:26:09;;;;;;;12.25;3.92;;;;;;;12.23;85.24;100170.97;5241396;28;19913;-69
2023/04/13 10:28:49;;;;;;;14.38;4.55;;;;;;;12.37;87.89;100170.38;5240007;28;20033;-69
2023/04/13 10:31:20;;;;;;;10.95;3.05;;;;;;;12.18;85.17;100171.44;5224442;28;20336;-69
2023/04/13 10:33:54;;;;;;;8.27;3.63;;;;;;;12.35;86.98;100174.13;5238839;28;20547;-69
2023/04/13 10:36:37;;;;;;;12.90;4.15;;;;;;;12.50;83.90;100177.00;5243478;28;20496;-69
2023/04/13 10:39:23;;;;;;;13.18;4.25;;;;;;;12.75;85.33;100176.09;5243987;28;20502;-69
2023/04/13 10:41:58;;;;;;;15.23;4.15;;;;;;;12.86;86.61;100186.31;5238540;28;20025;-69
2023/04/13 10:44:49;;;;;;;10.00;3.33;;;;;;;13.29;84.90;100184.41;5238944;28;20116;-70
2023/04/13 10:47:21;;;;;;;13.00;3.85;;;;;;;13.08;80.20;100189.31;5238010;28;20029;-69
2023/04/13 10:49:52;;;;;;;11.80;3.97;;;;;;;12.90;81.61;100194.69;5239948;28;20033;-69
2023/04/13 10:52:23;;;;;;;10.93;3.90;;;;;;;12.80;84.40;100194.81;5241191;28;20571;-69
2023/04/13 10:54:55;;;;;;;10.13;2.97;;;;;;;12.61;80.89;100206.47;5239869;28;20394;-69
2023/04/13 10:57:33;;;;;;;11.05;3.25;;;;;;;12.59;79.85;100204.97;5243981;28;20130;-69
2023/04/13 11:00:23;;;;;;;12.57;3.22;;;;;;;12.64;79.54;100216.63;5243434;28;20025;-69
2023/04/13 11:02:56;;;;;;;11.55;2.95;;;;;;;12.45;75.73;100221.31;5239772;28;20035;-69
2023/04/13 11:05:28;;;;;;;7.90;2.47;;;;;;;12.71;81.67;100226.50;5241847;28;20041;-69
2023/04/13 11:08:03;;;;;;;9.52;2.63;;;;;;;12.60;77.91;100225.00;5236328;28;20481;-72
2023/04/13 11:10:34;;;;;;;9.55;2.30;;;;;;;12.73;82.06;100230.63;5232957;28;20037;-70
2023/04/13 11:13:05;;;;;;;10.70;2.83;;;;;;;12.72;79.63;100234.22;5240191;28;20412;-69
2023/04/13 11:15:37;;;;;;;7.93;2.40;;;;;;;12.63;76.34;100240.44;5245795;28;20028;-69
2023/04/13 11:18:08;;;;;;;9.15;2.30;;;;;;;12.67;80.82;100236.53;5245640;28;20028;-69
2023/04/13 11:20:40;;;;;;;10.18;2.40;;;;;;;12.58;79.98;100250.63;5244358;28;20033;-69
2023/04/13 11:23:17;;;;;;;11.68;2.47;;;;;;;12.53;81.43;100245.00;5233598;28;20075;-69
2023/04/13 11:26:00;;;;;;;8.18;2.00;;;;;;;12.78;79.06;100246.75;5237627;28;20056;-69
2023/04/13 11:28:37;;;;;;;8.27;2.03;;;;;;;13.05;77.79;100239.59;5238728;28;20108;-69
2023/04/13 11:31:10;;;;;;;8.77;2.28;;;;;;;13.24;78.81;100239.34;5238808;28;20029;-68
2023/04/13 11:33:43;;;;;;;10.73;2.63;;;;;;;13.41;73.92;100242.81;5237628;28;20130;-69
2023/04/13 11:36:18;;;;;;;9.95;2.50;;;;;;;13.65;75.56;100239.38;5241946;28;20468;-68
2023/04/13 11:38:52;;;;;;;8.98;2.63;;;;;;;13.76;70.70;100232.94;5243632;28;20474;-69
2023/04/13 11:41:26;;;;;;;8.10;2.30;;;;;;;13.95;71.33;100234.41;5241152;28;20110;-68
2023/04/13 11:44:00;;;;;;;11.52;2.90;;;;;;;14.14;68.40;100230.59;5245188;28;20029;-68
2023/04/13 11:46:32;;;;;;;7.57;2.20;;;;;;;14.26;64.69;100237.97;5243459;28;20032;-69
2023/04/13 11:49:03;;;;;;;8.23;2.38;;;;;;;14.30;63.06;100243.72;5244797;28;20083;-69
2023/04/13 11:51:36;;;;;;;7.55;2.42;;;;;;;14.60;65.13;100236.91;5242879;28;20033;-69
2023/04/13 11:54:07;;;;;;;9.15;2.88;;;;;;;14.77;64.82;100230.56;5241581;28;20036;-69
2023/04/13 11:56:39;;;;;;;10.60;3.00;;;;;;;14.64;58.91;100232.91;5239647;28;20430;-69